sensor_id;sensor_type;location;lat;lon;timestamp;P1;durP1;ratioP1;P2;durP2;ratioP2
71629;SDS011;59479;51.902;8.212;2022-08-24T00:00:52;3.93;;;2.20;;
71629;SDS011;59479;51.902;8.212;2022-08-24T00:03:17;6.27;;;2.53;;
71629;SDS011;59479;51.902;8.212;2022-08-24T00:05:43;4.03;;;2.30;;
71629;SDS011;59479;51.902;8.212;2022-08-24T00:08:08;4.83;;;1.73;;
71629;SDS011;59479;51.902;8.212;2022-08-24T00:10:34;4.27;;;2.03;;
71629;SDS011;59479;51.902;8.212;2022-08-24T00:12:59;3.87;;;2.10;;
71629;SDS011;59479;51.902;8.212;2022-08-24T00:15:24;6.95;;;2.33;;
71629;SDS011;59479;51.902;8.212;2022-08-24T00:17:50;4.30;;;2.20;;
71629;SDS011;59479;51.902;8.212;2022-08-24T00:20:15;4.63;;;2.00;;
71629;SDS011;59479;51.902;8.212;2022-08-24T00:22:41;4.87;;;2.47;;
71629;SDS011;59479;51.902;8.212;2022-08-24T00:25:08;5.65;;;2.13;;
71629;SDS011;59479;51.902;8.212;2022-08-24T00:27:35;4.57;;;2.00;;
71629;SDS011;59479;51.902;8.212;2022-08-24T00:30:03;5.10;;;2.10;;
71629;SDS011;59479;51.902;8.212;2022-08-24T00:32:30;5.15;;;1.88;;
71629;SDS011;59479;51.902;8.212;2022-08-24T00:34:56;4.53;;;1.97;;
71629;SDS011;59479;51.902;8.212;2022-08-24T00:37:21;4.15;;;1.88;;
71629;SDS011;59479;51.902;8.212;2022-08-24T00:39:47;5.40;;;1.93;;
71629;SDS011;59479;51.902;8.212;2022-08-24T00:42:15;4.03;;;2.00;;
71629;SDS011;59479;51.902;8.212;2022-08-24T00:44:40;3.50;;;1.55;;
71629;SDS011;59479;51.902;8.212;2022-08-24T00:47:10;4.53;;;1.83;;
71629;SDS011;59479;51.902;8.212;2022-08-24T00:49:45;3.85;;;1.92;;
71629;SDS011;59479;51.902;8.212;2022-08-24T00:52:26;4.82;;;2.17;;
71629;SDS011;59479;51.902;8.212;2022-08-24T00:54:57;5.55;;;2.08;;
71629;SDS011;59479;51.902;8.212;2022-08-24T00:57:28;4.38;;;1.90;;
71629;SDS011;59479;51.902;8.212;2022-08-24T00:59:57;4.03;;;1.95;;
71629;SDS011;59479;51.902;8.212;2022-08-24T01:02:29;8.77;;;2.22;;
71629;SDS011;59479;51.902;8.212;2022-08-24T01:04:58;5.78;;;2.15;;
71629;SDS011;59479;51.902;8.212;2022-08-24T01:07:27;5.03;;;2.30;;
71629;SDS011;59479;51.902;8.212;2022-08-24T01:09:54;6.70;;;2.10;;
71629;SDS011;59479;51.902;8.212;2022-08-24T01:12:23;5.15;;;1.83;;
71629;SDS011;59479;51.902;8.212;2022-08-24T01:14:49;6.00;;;2.25;;
71629;SDS011;59479;51.902;8.212;2022-08-24T01:17:14;4.37;;;2.10;;
71629;SDS011;59479;51.902;8.212;2022-08-24T01:19:59;5.57;;;2.00;;
71629;SDS011;59479;51.902;8.212;2022-08-24T01:25:08;4.38;;;1.95;;
71629;SDS011;59479;51.902;8.212;2022-08-24T01:27:34;5.15;;;2.15;;
71629;SDS011;59479;51.902;8.212;2022-08-24T01:30:02;5.15;;;2.00;;
71629;SDS011;59479;51.902;8.212;2022-08-24T01:32:33;5.88;;;1.80;;
71629;SDS011;59479;51.902;8.212;2022-08-24T01:34:58;4.63;;;1.90;;
71629;SDS011;59479;51.902;8.212;2022-08-24T01:37:24;4.50;;;2.03;;
71629;SDS011;59479;51.902;8.212;2022-08-24T01:39:51;4.13;;;2.10;;
71629;SDS011;59479;51.902;8.212;2022-08-24T01:42:19;5.82;;;2.15;;
71629;SDS011;59479;51.902;8.212;2022-08-24T01:44:44;5.40;;;2.10;;
71629;SDS011;59479;51.902;8.212;2022-08-24T01:47:11;5.17;;;2.30;;
71629;SDS011;59479;51.902;8.212;2022-08-24T01:49:39;4.75;;;1.98;;
71629;SDS011;59479;51.902;8.212;2022-08-24T01:52:06;4.57;;;2.00;;
71629;SDS011;59479;51.902;8.212;2022-08-24T01:54:34;4.18;;;2.00;;
71629;SDS011;59479;51.902;8.212;2022-08-24T01:57:00;4.10;;;2.08;;
71629;SDS011;59479;51.902;8.212;2022-08-24T01:59:26;4.17;;;2.10;;
71629;SDS011;59479;51.902;8.212;2022-08-24T02:01:55;6.15;;;2.25;;
71629;SDS011;59479;51.902;8.212;2022-08-24T02:04:28;5.63;;;2.05;;
71629;SDS011;59479;51.902;8.212;2022-08-24T02:06:53;4.03;;;2.20;;
71629;SDS011;59479;51.902;8.212;2022-08-24T02:09:19;5.03;;;2.23;;
71629;SDS011;59479;51.902;8.212;2022-08-24T02:11:44;5.17;;;2.13;;
71629;SDS011;59479;51.902;8.212;2022-08-24T02:14:11;3.28;;;1.60;;
71629;SDS011;59479;51.902;8.212;2022-08-24T02:16:37;5.68;;;2.00;;
71629;SDS011;59479;51.902;8.212;2022-08-24T02:19:03;4.60;;;1.90;;
71629;SDS011;59479;51.902;8.212;2022-08-24T02:21:28;4.73;;;2.20;;
71629;SDS011;59479;51.902;8.212;2022-08-24T02:23:53;3.80;;;1.90;;
71629;SDS011;59479;51.902;8.212;2022-08-24T02:26:19;4.73;;;2.00;;
71629;SDS011;59479;51.902;8.212;2022-08-24T02:28:44;6.93;;;2.17;;
71629;SDS011;59479;51.902;8.212;2022-08-24T02:31:11;4.30;;;1.97;;
71629;SDS011;59479;51.902;8.212;2022-08-24T02:33:38;5.10;;;2.05;;
71629;SDS011;59479;51.902;8.212;2022-08-24T02:36:04;4.87;;;2.20;;
71629;SDS011;59479;51.902;8.212;2022-08-24T02:38:31;5.07;;;2.10;;
71629;SDS011;59479;51.902;8.212;2022-08-24T02:40:56;3.75;;;2.28;;
71629;SDS011;59479;51.902;8.212;2022-08-24T02:43:22;6.97;;;2.20;;
71629;SDS011;59479;51.902;8.212;2022-08-24T02:45:48;5.30;;;2.30;;
71629;SDS011;59479;51.902;8.212;2022-08-24T02:48:15;3.90;;;1.90;;
71629;SDS011;59479;51.902;8.212;2022-08-24T02:50:42;5.65;;;2.20;;
71629;SDS011;59479;51.902;8.212;2022-08-24T02:53:09;5.45;;;2.58;;
71629;SDS011;59479;51.902;8.212;2022-08-24T02:55:36;4.88;;;1.90;;
71629;SDS011;59479;51.902;8.212;2022-08-24T02:58:03;4.95;;;2.05;;
71629;SDS011;59479;51.902;8.212;2022-08-24T03:00:29;7.95;;;2.08;;
71629;SDS011;59479;51.902;8.212;2022-08-24T03:02:54;3.73;;;1.90;;
71629;SDS011;59479;51.902;8.212;2022-08-24T03:05:20;4.40;;;2.30;;
71629;SDS011;59479;51.902;8.212;2022-08-24T03:07:46;4.38;;;2.20;;
71629;SDS011;59479;51.902;8.212;2022-08-24T03:10:11;5.80;;;1.73;;
71629;SDS011;59479;51.902;8.212;2022-08-24T03:12:37;4.80;;;1.93;;
71629;SDS011;59479;51.902;8.212;2022-08-24T03:15:04;4.28;;;2.10;;
71629;SDS011;59479;51.902;8.212;2022-08-24T03:17:31;4.90;;;2.20;;
71629;SDS011;59479;51.902;8.212;2022-08-24T03:19:57;4.30;;;2.00;;
71629;SDS011;59479;51.902;8.212;2022-08-24T03:22:24;3.80;;;2.03;;
71629;SDS011;59479;51.902;8.212;2022-08-24T03:24:50;4.78;;;2.22;;
71629;SDS011;59479;51.902;8.212;2022-08-24T03:27:16;4.60;;;2.03;;
71629;SDS011;59479;51.902;8.212;2022-08-24T03:29:41;5.93;;;2.05;;
71629;SDS011;59479;51.902;8.212;2022-08-24T03:32:06;6.07;;;2.30;;
71629;SDS011;59479;51.902;8.212;2022-08-24T03:34:32;4.53;;;2.10;;
71629;SDS011;59479;51.902;8.212;2022-08-24T03:36:57;4.30;;;2.03;;
71629;SDS011;59479;51.902;8.212;2022-08-24T03:39:23;5.45;;;2.50;;
71629;SDS011;59479;51.902;8.212;2022-08-24T03:41:48;4.93;;;2.33;;
71629;SDS011;59479;51.902;8.212;2022-08-24T03:44:13;5.20;;;2.57;;
71629;SDS011;59479;51.902;8.212;2022-08-24T03:46:39;4.60;;;2.50;;
71629;SDS011;59479;51.902;8.212;2022-08-24T03:49:06;7.25;;;2.33;;
71629;SDS011;59479;51.902;8.212;2022-08-24T03:51:34;6.45;;;2.38;;
71629;SDS011;59479;51.902;8.212;2022-08-24T03:54:01;5.80;;;2.67;;
71629;SDS011;59479;51.902;8.212;2022-08-24T03:56:27;4.20;;;2.30;;
71629;SDS011;59479;51.902;8.212;2022-08-24T03:58:53;5.35;;;2.53;;
71629;SDS011;59479;51.902;8.212;2022-08-24T04:01:19;5.67;;;2.50;;
71629;SDS011;59479;51.902;8.212;2022-08-24T04:03:45;5.22;;;2.50;;
71629;SDS011;59479;51.902;8.212;2022-08-24T04:06:13;5.38;;;2.67;;
71629;SDS011;59479;51.902;8.212;2022-08-24T04:08:40;3.80;;;2.20;;
71629;SDS011;59479;51.902;8.212;2022-08-24T04:11:11;6.18;;;2.42;;
71629;SDS011;59479;51.902;8.212;2022-08-24T04:13:38;5.80;;;2.47;;
71629;SDS011;59479;51.902;8.212;2022-08-24T04:16:05;5.30;;;2.78;;
71629;SDS011;59479;51.902;8.212;2022-08-24T04:18:36;5.68;;;2.70;;
71629;SDS011;59479;51.902;8.212;2022-08-24T04:21:02;4.57;;;2.20;;
71629;SDS011;59479;51.902;8.212;2022-08-24T04:23:28;5.90;;;2.80;;
71629;SDS011;59479;51.902;8.212;2022-08-24T04:25:54;4.80;;;2.42;;
71629;SDS011;59479;51.902;8.212;2022-08-24T04:28:19;6.10;;;2.40;;
71629;SDS011;59479;51.902;8.212;2022-08-24T04:30:46;5.00;;;2.63;;
71629;SDS011;59479;51.902;8.212;2022-08-24T04:33:15;6.80;;;2.88;;
71629;SDS011;59479;51.902;8.212;2022-08-24T04:35:42;4.65;;;2.50;;
71629;SDS011;59479;51.902;8.212;2022-08-24T04:38:12;5.40;;;2.90;;
71629;SDS011;59479;51.902;8.212;2022-08-24T04:40:39;5.28;;;2.50;;
71629;SDS011;59479;51.902;8.212;2022-08-24T04:43:06;5.50;;;2.53;;
71629;SDS011;59479;51.902;8.212;2022-08-24T04:45:32;4.60;;;2.17;;
71629;SDS011;59479;51.902;8.212;2022-08-24T04:48:01;4.70;;;2.50;;
71629;SDS011;59479;51.902;8.212;2022-08-24T04:50:27;5.87;;;2.30;;
71629;SDS011;59479;51.902;8.212;2022-08-24T04:52:52;5.90;;;2.90;;
71629;SDS011;59479;51.902;8.212;2022-08-24T04:55:17;5.30;;;2.97;;
71629;SDS011;59479;51.902;8.212;2022-08-24T04:57:43;7.27;;;3.57;;
71629;SDS011;59479;51.902;8.212;2022-08-24T05:00:08;8.30;;;4.80;;
71629;SDS011;59479;51.902;8.212;2022-08-24T05:02:35;7.82;;;3.80;;
71629;SDS011;59479;51.902;8.212;2022-08-24T05:05:04;5.40;;;3.30;;
71629;SDS011;59479;51.902;8.212;2022-08-24T05:07:31;6.80;;;3.33;;
71629;SDS011;59479;51.902;8.212;2022-08-24T05:09:56;7.13;;;3.28;;
71629;SDS011;59479;51.902;8.212;2022-08-24T05:12:21;6.17;;;3.20;;
71629;SDS011;59479;51.902;8.212;2022-08-24T05:14:48;6.85;;;4.43;;
71629;SDS011;59479;51.902;8.212;2022-08-24T05:17:13;6.32;;;3.08;;
71629;SDS011;59479;51.902;8.212;2022-08-24T05:19:38;5.70;;;2.53;;
71629;SDS011;59479;51.902;8.212;2022-08-24T05:22:04;5.17;;;2.50;;
71629;SDS011;59479;51.902;8.212;2022-08-24T05:24:29;6.10;;;3.00;;
71629;SDS011;59479;51.902;8.212;2022-08-24T05:26:55;5.73;;;2.67;;
71629;SDS011;59479;51.902;8.212;2022-08-24T05:29:20;8.07;;;2.80;;
71629;SDS011;59479;51.902;8.212;2022-08-24T05:31:45;5.05;;;2.25;;
71629;SDS011;59479;51.902;8.212;2022-08-24T05:34:11;10.17;;;2.73;;
71629;SDS011;59479;51.902;8.212;2022-08-24T05:36:38;5.07;;;2.60;;
71629;SDS011;59479;51.902;8.212;2022-08-24T05:39:06;4.70;;;2.60;;
71629;SDS011;59479;51.902;8.212;2022-08-24T05:41:34;5.25;;;2.53;;
71629;SDS011;59479;51.902;8.212;2022-08-24T05:44:00;5.15;;;2.45;;
71629;SDS011;59479;51.902;8.212;2022-08-24T05:46:26;6.17;;;2.70;;
71629;SDS011;59479;51.902;8.212;2022-08-24T05:48:52;5.50;;;2.45;;
71629;SDS011;59479;51.902;8.212;2022-08-24T05:51:19;5.18;;;2.75;;
71629;SDS011;59479;51.902;8.212;2022-08-24T05:53:45;7.00;;;2.90;;
71629;SDS011;59479;51.902;8.212;2022-08-24T05:56:11;6.70;;;2.97;;
71629;SDS011;59479;51.902;8.212;2022-08-24T05:58:38;5.85;;;2.60;;
71629;SDS011;59479;51.902;8.212;2022-08-24T06:01:05;6.87;;;2.60;;
71629;SDS011;59479;51.902;8.212;2022-08-24T06:03:32;6.03;;;2.40;;
71629;SDS011;59479;51.902;8.212;2022-08-24T06:05:57;4.80;;;2.30;;
71629;SDS011;59479;51.902;8.212;2022-08-24T06:08:23;5.77;;;2.70;;
71629;SDS011;59479;51.902;8.212;2022-08-24T06:10:48;5.63;;;2.90;;
71629;SDS011;59479;51.902;8.212;2022-08-24T06:13:13;5.78;;;2.40;;
71629;SDS011;59479;51.902;8.212;2022-08-24T06:15:40;6.67;;;2.30;;
71629;SDS011;59479;51.902;8.212;2022-08-24T06:18:07;4.57;;;2.53;;
71629;SDS011;59479;51.902;8.212;2022-08-24T06:20:36;6.47;;;2.70;;
71629;SDS011;59479;51.902;8.212;2022-08-24T06:23:03;7.60;;;3.08;;
71629;SDS011;59479;51.902;8.212;2022-08-24T06:25:29;4.63;;;2.40;;
71629;SDS011;59479;51.902;8.212;2022-08-24T06:28:12;5.43;;;2.60;;
71629;SDS011;59479;51.902;8.212;2022-08-24T06:30:38;6.83;;;2.80;;
71629;SDS011;59479;51.902;8.212;2022-08-24T06:33:03;5.63;;;2.70;;
71629;SDS011;59479;51.902;8.212;2022-08-24T06:35:29;4.60;;;2.35;;
71629;SDS011;59479;51.902;8.212;2022-08-24T06:37:55;5.40;;;2.57;;
71629;SDS011;59479;51.902;8.212;2022-08-24T06:40:20;6.63;;;2.60;;
71629;SDS011;59479;51.902;8.212;2022-08-24T06:42:46;5.40;;;2.60;;
71629;SDS011;59479;51.902;8.212;2022-08-24T06:45:12;4.83;;;2.70;;
71629;SDS011;59479;51.902;8.212;2022-08-24T06:47:38;5.43;;;2.30;;
71629;SDS011;59479;51.902;8.212;2022-08-24T06:50:04;6.23;;;2.50;;
71629;SDS011;59479;51.902;8.212;2022-08-24T06:52:30;5.85;;;2.20;;
71629;SDS011;59479;51.902;8.212;2022-08-24T06:54:56;4.72;;;2.05;;
71629;SDS011;59479;51.902;8.212;2022-08-24T06:57:21;6.60;;;2.50;;
71629;SDS011;59479;51.902;8.212;2022-08-24T06:59:46;6.30;;;2.47;;
71629;SDS011;59479;51.902;8.212;2022-08-24T07:02:12;6.73;;;2.53;;
71629;SDS011;59479;51.902;8.212;2022-08-24T07:04:40;5.40;;;2.40;;
71629;SDS011;59479;51.902;8.212;2022-08-24T07:07:06;5.60;;;2.25;;
71629;SDS011;59479;51.902;8.212;2022-08-24T07:09:31;7.93;;;2.83;;
71629;SDS011;59479;51.902;8.212;2022-08-24T07:11:57;6.17;;;2.60;;
71629;SDS011;59479;51.902;8.212;2022-08-24T07:14:22;5.05;;;2.45;;
71629;SDS011;59479;51.902;8.212;2022-08-24T07:16:48;6.72;;;2.40;;
71629;SDS011;59479;51.902;8.212;2022-08-24T07:19:13;6.80;;;2.50;;
71629;SDS011;59479;51.902;8.212;2022-08-24T07:21:38;5.57;;;2.10;;
71629;SDS011;59479;51.902;8.212;2022-08-24T07:24:04;4.53;;;2.40;;
71629;SDS011;59479;51.902;8.212;2022-08-24T07:26:31;6.18;;;2.03;;
71629;SDS011;59479;51.902;8.212;2022-08-24T07:29:00;5.47;;;2.78;;
71629;SDS011;59479;51.902;8.212;2022-08-24T07:31:35;5.17;;;2.60;;
71629;SDS011;59479;51.902;8.212;2022-08-24T07:34:03;4.90;;;2.25;;
71629;SDS011;59479;51.902;8.212;2022-08-24T07:36:30;4.88;;;2.38;;
71629;SDS011;59479;51.902;8.212;2022-08-24T07:38:56;5.50;;;2.30;;
71629;SDS011;59479;51.902;8.212;2022-08-24T07:41:22;7.75;;;2.67;;
71629;SDS011;59479;51.902;8.212;2022-08-24T07:43:52;6.57;;;2.33;;
71629;SDS011;59479;51.902;8.212;2022-08-24T07:46:19;8.00;;;2.53;;
71629;SDS011;59479;51.902;8.212;2022-08-24T07:48:45;5.88;;;2.50;;
71629;SDS011;59479;51.902;8.212;2022-08-24T07:51:12;7.78;;;2.30;;
71629;SDS011;59479;51.902;8.212;2022-08-24T07:53:38;6.93;;;2.20;;
71629;SDS011;59479;51.902;8.212;2022-08-24T07:56:04;5.90;;;2.20;;
71629;SDS011;59479;51.902;8.212;2022-08-24T07:58:29;4.80;;;2.30;;
71629;SDS011;59479;51.902;8.212;2022-08-24T08:00:55;6.30;;;2.53;;
71629;SDS011;59479;51.902;8.212;2022-08-24T08:03:21;5.72;;;2.30;;
71629;SDS011;59479;51.902;8.212;2022-08-24T08:05:48;5.50;;;2.13;;
71629;SDS011;59479;51.902;8.212;2022-08-24T08:08:18;4.47;;;2.13;;
71629;SDS011;59479;51.902;8.212;2022-08-24T08:10:44;4.85;;;2.30;;
71629;SDS011;59479;51.902;8.212;2022-08-24T08:13:10;7.28;;;2.42;;
71629;SDS011;59479;51.902;8.212;2022-08-24T08:15:35;5.40;;;2.10;;
71629;SDS011;59479;51.902;8.212;2022-08-24T08:18:01;7.83;;;2.57;;
71629;SDS011;59479;51.902;8.212;2022-08-24T08:20:26;5.20;;;2.60;;
71629;SDS011;59479;51.902;8.212;2022-08-24T08:22:51;5.63;;;2.37;;
71629;SDS011;59479;51.902;8.212;2022-08-24T08:25:40;5.88;;;2.50;;
71629;SDS011;59479;51.902;8.212;2022-08-24T08:28:05;4.57;;;2.33;;
71629;SDS011;59479;51.902;8.212;2022-08-24T08:30:31;4.93;;;2.20;;
71629;SDS011;59479;51.902;8.212;2022-08-24T08:32:57;6.68;;;2.90;;
71629;SDS011;59479;51.902;8.212;2022-08-24T08:35:22;5.57;;;2.47;;
71629;SDS011;59479;51.902;8.212;2022-08-24T08:37:48;5.63;;;2.63;;
71629;SDS011;59479;51.902;8.212;2022-08-24T08:41:02;6.00;;;2.67;;
71629;SDS011;59479;51.902;8.212;2022-08-24T08:51:32;6.93;;;2.70;;
71629;SDS011;59479;51.902;8.212;2022-08-24T09:02:26;5.25;;;2.67;;
71629;SDS011;59479;51.902;8.212;2022-08-24T09:11:31;5.13;;;2.40;;
71629;SDS011;59479;51.902;8.212;2022-08-24T09:22:23;5.30;;;2.92;;
71629;SDS011;59479;51.902;8.212;2022-08-24T09:30:11;6.85;;;2.85;;
71629;SDS011;59479;51.902;8.212;2022-08-24T09:38:26;5.47;;;2.55;;
71629;SDS011;59479;51.902;8.212;2022-08-24T09:58:03;6.28;;;2.90;;
71629;SDS011;59479;51.902;8.212;2022-08-24T10:06:05;4.10;;;2.50;;
71629;SDS011;59479;51.902;8.212;2022-08-24T10:11:51;4.95;;;2.42;;
71629;SDS011;59479;51.902;8.212;2022-08-24T10:17:42;4.80;;;2.70;;
71629;SDS011;59479;51.902;8.212;2022-08-24T10:25:45;6.57;;;2.67;;
71629;SDS011;59479;51.902;8.212;2022-08-24T10:28:29;5.57;;;2.20;;
71629;SDS011;59479;51.902;8.212;2022-08-24T10:31:07;7.10;;;2.88;;
71629;SDS011;59479;51.902;8.212;2022-08-24T10:33:39;5.70;;;2.70;;
71629;SDS011;59479;51.902;8.212;2022-08-24T10:39:41;7.80;;;2.88;;
71629;SDS011;59479;51.902;8.212;2022-08-24T10:45:33;4.85;;;2.28;;
71629;SDS011;59479;51.902;8.212;2022-08-24T10:50:45;8.43;;;2.20;;
71629;SDS011;59479;51.902;8.212;2022-08-24T10:53:32;5.38;;;2.25;;
71629;SDS011;59479;51.902;8.212;2022-08-24T11:01:19;5.45;;;2.55;;
71629;SDS011;59479;51.902;8.212;2022-08-24T11:03:48;6.45;;;2.38;;
71629;SDS011;59479;51.902;8.212;2022-08-24T11:06:15;5.45;;;2.30;;
71629;SDS011;59479;51.902;8.212;2022-08-24T11:08:49;4.93;;;2.40;;
71629;SDS011;59479;51.902;8.212;2022-08-24T11:11:29;5.28;;;2.60;;
71629;SDS011;59479;51.902;8.212;2022-08-24T11:14:07;5.05;;;2.40;;
71629;SDS011;59479;51.902;8.212;2022-08-24T11:16:48;6.43;;;2.60;;
71629;SDS011;59479;51.902;8.212;2022-08-24T11:19:35;6.35;;;2.78;;
71629;SDS011;59479;51.902;8.212;2022-08-24T11:22:04;5.40;;;2.50;;
71629;SDS011;59479;51.902;8.212;2022-08-24T11:24:38;5.72;;;2.70;;
71629;SDS011;59479;51.902;8.212;2022-08-24T11:34:50;5.63;;;2.57;;
71629;SDS011;59479;51.902;8.212;2022-08-24T11:37:15;6.90;;;2.80;;
71629;SDS011;59479;51.902;8.212;2022-08-24T11:39:45;5.20;;;2.80;;
71629;SDS011;59479;51.902;8.212;2022-08-24T11:42:24;5.73;;;2.90;;
71629;SDS011;59479;51.902;8.212;2022-08-24T11:50:28;6.75;;;3.35;;
71629;SDS011;59479;51.902;8.212;2022-08-24T11:53:06;7.93;;;3.15;;
71629;SDS011;59479;51.902;8.212;2022-08-24T11:58:37;5.53;;;2.80;;
71629;SDS011;59479;51.902;8.212;2022-08-24T12:01:28;6.30;;;2.90;;
71629;SDS011;59479;51.902;8.212;2022-08-24T12:12:21;5.40;;;2.63;;
71629;SDS011;59479;51.902;8.212;2022-08-24T12:14:58;7.63;;;2.45;;
71629;SDS011;59479;51.902;8.212;2022-08-24T12:19:59;6.53;;;2.90;;
71629;SDS011;59479;51.902;8.212;2022-08-24T12:22:30;5.25;;;3.00;;
71629;SDS011;59479;51.902;8.212;2022-08-24T12:24:57;5.97;;;2.50;;
71629;SDS011;59479;51.902;8.212;2022-08-24T12:27:27;6.45;;;3.17;;
71629;SDS011;59479;51.902;8.212;2022-08-24T12:30:07;5.75;;;3.00;;
71629;SDS011;59479;51.902;8.212;2022-08-24T12:32:42;5.00;;;3.10;;
71629;SDS011;59479;51.902;8.212;2022-08-24T12:35:20;4.45;;;2.88;;
71629;SDS011;59479;51.902;8.212;2022-08-24T12:38:08;5.05;;;3.00;;
71629;SDS011;59479;51.902;8.212;2022-08-24T12:40:42;4.63;;;2.67;;
71629;SDS011;59479;51.902;8.212;2022-08-24T12:43:41;5.68;;;2.88;;
71629;SDS011;59479;51.902;8.212;2022-08-24T12:46:11;6.80;;;3.20;;
71629;SDS011;59479;51.902;8.212;2022-08-24T12:51:31;5.72;;;2.88;;
71629;SDS011;59479;51.902;8.212;2022-08-24T12:54:11;4.32;;;2.72;;
71629;SDS011;59479;51.902;8.212;2022-08-24T13:04:41;5.22;;;2.35;;
71629;SDS011;59479;51.902;8.212;2022-08-24T13:23:04;6.00;;;2.58;;
71629;SDS011;59479;51.902;8.212;2022-08-24T13:28:36;6.07;;;2.60;;
71629;SDS011;59479;51.902;8.212;2022-08-24T13:33:55;6.65;;;2.22;;
71629;SDS011;59479;51.902;8.212;2022-08-24T13:41:42;4.80;;;2.50;;
71629;SDS011;59479;51.902;8.212;2022-08-24T13:44:48;5.50;;;2.70;;
71629;SDS011;59479;51.902;8.212;2022-08-24T13:55:50;4.57;;;2.50;;
71629;SDS011;59479;51.902;8.212;2022-08-24T14:03:59;5.20;;;2.67;;
71629;SDS011;59479;51.902;8.212;2022-08-24T14:09:41;4.97;;;2.55;;
71629;SDS011;59479;51.902;8.212;2022-08-24T14:12:14;4.78;;;2.50;;
71629;SDS011;59479;51.902;8.212;2022-08-24T14:14:56;5.22;;;2.60;;
71629;SDS011;59479;51.902;8.212;2022-08-24T14:39:35;6.03;;;2.23;;
71629;SDS011;59479;51.902;8.212;2022-08-24T14:50:35;5.75;;;2.35;;
71629;SDS011;59479;51.902;8.212;2022-08-24T14:56:03;6.97;;;2.30;;
71629;SDS011;59479;51.902;8.212;2022-08-24T15:11:42;5.82;;;2.40;;
71629;SDS011;59479;51.902;8.212;2022-08-24T15:14:10;4.45;;;2.10;;
71629;SDS011;59479;51.902;8.212;2022-08-24T15:16:47;4.25;;;2.28;;
71629;SDS011;59479;51.902;8.212;2022-08-24T15:22:18;5.40;;;2.53;;
71629;SDS011;59479;51.902;8.212;2022-08-24T15:25:10;8.15;;;2.60;;
71629;SDS011;59479;51.902;8.212;2022-08-24T15:27:56;4.80;;;2.53;;
71629;SDS011;59479;51.902;8.212;2022-08-24T15:30:25;6.75;;;2.40;;
71629;SDS011;59479;51.902;8.212;2022-08-24T15:33:04;4.90;;;2.30;;
71629;SDS011;59479;51.902;8.212;2022-08-24T15:35:42;4.97;;;2.10;;
71629;SDS011;59479;51.902;8.212;2022-08-24T15:43:39;4.97;;;2.60;;
71629;SDS011;59479;51.902;8.212;2022-08-24T15:46:09;5.60;;;2.73;;
71629;SDS011;59479;51.902;8.212;2022-08-24T15:48:36;6.13;;;3.28;;
71629;SDS011;59479;51.902;8.212;2022-08-24T15:51:02;5.72;;;2.88;;
71629;SDS011;59479;51.902;8.212;2022-08-24T15:53:32;5.43;;;2.60;;
71629;SDS011;59479;51.902;8.212;2022-08-24T15:56:22;4.17;;;2.37;;
71629;SDS011;59479;51.902;8.212;2022-08-24T15:58:51;5.05;;;2.53;;
71629;SDS011;59479;51.902;8.212;2022-08-24T16:01:19;4.95;;;2.67;;
71629;SDS011;59479;51.902;8.212;2022-08-24T16:04:06;6.28;;;3.35;;
71629;SDS011;59479;51.902;8.212;2022-08-24T16:06:36;6.67;;;3.50;;
71629;SDS011;59479;51.902;8.212;2022-08-24T16:14:25;5.70;;;2.50;;
71629;SDS011;59479;51.902;8.212;2022-08-24T16:16:53;6.82;;;2.47;;
71629;SDS011;59479;51.902;8.212;2022-08-24T16:19:32;7.30;;;2.60;;
71629;SDS011;59479;51.902;8.212;2022-08-24T16:24:34;5.45;;;2.63;;
71629;SDS011;59479;51.902;8.212;2022-08-24T16:27:06;4.97;;;2.33;;
71629;SDS011;59479;51.902;8.212;2022-08-24T16:34:36;5.20;;;2.78;;
71629;SDS011;59479;51.902;8.212;2022-08-24T16:37:03;4.75;;;2.80;;
71629;SDS011;59479;51.902;8.212;2022-08-24T16:39:29;4.57;;;2.38;;
71629;SDS011;59479;51.902;8.212;2022-08-24T16:41:55;4.27;;;2.40;;
71629;SDS011;59479;51.902;8.212;2022-08-24T16:44:23;7.07;;;2.78;;
71629;SDS011;59479;51.902;8.212;2022-08-24T16:46:52;5.57;;;2.90;;
71629;SDS011;59479;51.902;8.212;2022-08-24T16:49:17;6.37;;;2.77;;
71629;SDS011;59479;51.902;8.212;2022-08-24T16:51:42;6.60;;;2.57;;
71629;SDS011;59479;51.902;8.212;2022-08-24T16:54:08;5.57;;;2.57;;
71629;SDS011;59479;51.902;8.212;2022-08-24T16:56:33;5.17;;;2.80;;
71629;SDS011;59479;51.902;8.212;2022-08-24T16:58:59;5.97;;;2.40;;
71629;SDS011;59479;51.902;8.212;2022-08-24T17:01:24;5.23;;;2.37;;
71629;SDS011;59479;51.902;8.212;2022-08-24T17:03:49;5.40;;;2.17;;
71629;SDS011;59479;51.902;8.212;2022-08-24T17:06:15;4.53;;;2.50;;
71629;SDS011;59479;51.902;8.212;2022-08-24T17:08:42;5.78;;;2.63;;
71629;SDS011;59479;51.902;8.212;2022-08-24T17:11:08;4.83;;;2.60;;
71629;SDS011;59479;51.902;8.212;2022-08-24T17:13:33;5.07;;;2.80;;
71629;SDS011;59479;51.902;8.212;2022-08-24T17:15:59;5.33;;;2.87;;
71629;SDS011;59479;51.902;8.212;2022-08-24T17:18:26;4.90;;;2.92;;
71629;SDS011;59479;51.902;8.212;2022-08-24T17:20:52;5.57;;;3.20;;
71629;SDS011;59479;51.902;8.212;2022-08-24T17:23:17;5.17;;;2.97;;
71629;SDS011;59479;51.902;8.212;2022-08-24T17:25:42;6.00;;;3.20;;
71629;SDS011;59479;51.902;8.212;2022-08-24T17:28:12;9.37;;;3.37;;
71629;SDS011;59479;51.902;8.212;2022-08-24T17:30:40;6.15;;;3.28;;
71629;SDS011;59479;51.902;8.212;2022-08-24T17:33:06;7.03;;;3.60;;
71629;SDS011;59479;51.902;8.212;2022-08-24T17:35:31;7.07;;;3.33;;
71629;SDS011;59479;51.902;8.212;2022-08-24T17:37:57;5.67;;;3.20;;
71629;SDS011;59479;51.902;8.212;2022-08-24T17:40:24;8.82;;;3.75;;
71629;SDS011;59479;51.902;8.212;2022-08-24T17:42:51;7.15;;;3.88;;
71629;SDS011;59479;51.902;8.212;2022-08-24T17:45:17;6.37;;;3.50;;
71629;SDS011;59479;51.902;8.212;2022-08-24T17:47:46;7.68;;;3.40;;
71629;SDS011;59479;51.902;8.212;2022-08-24T17:50:12;6.53;;;3.70;;
71629;SDS011;59479;51.902;8.212;2022-08-24T17:52:38;6.70;;;3.63;;
71629;SDS011;59479;51.902;8.212;2022-08-24T17:55:05;6.68;;;3.35;;
71629;SDS011;59479;51.902;8.212;2022-08-24T17:57:32;6.10;;;3.40;;
71629;SDS011;59479;51.902;8.212;2022-08-24T17:59:57;5.77;;;3.67;;
71629;SDS011;59479;51.902;8.212;2022-08-24T18:02:23;7.23;;;3.83;;
71629;SDS011;59479;51.902;8.212;2022-08-24T18:04:48;6.67;;;3.40;;
71629;SDS011;59479;51.902;8.212;2022-08-24T18:07:15;6.60;;;3.73;;
71629;SDS011;59479;51.902;8.212;2022-08-24T18:09:47;7.77;;;3.90;;
71629;SDS011;59479;51.902;8.212;2022-08-24T18:12:15;5.78;;;3.63;;
71629;SDS011;59479;51.902;8.212;2022-08-24T18:14:42;5.97;;;3.60;;
71629;SDS011;59479;51.902;8.212;2022-08-24T18:17:09;7.18;;;3.40;;
71629;SDS011;59479;51.902;8.212;2022-08-24T18:19:38;5.43;;;3.43;;
71629;SDS011;59479;51.902;8.212;2022-08-24T18:22:04;4.97;;;3.20;;
71629;SDS011;59479;51.902;8.212;2022-08-24T18:24:30;8.07;;;3.25;;
71629;SDS011;59479;51.902;8.212;2022-08-24T18:26:57;5.72;;;2.85;;
71629;SDS011;59479;51.902;8.212;2022-08-24T18:29:34;5.17;;;3.00;;
71629;SDS011;59479;51.902;8.212;2022-08-24T18:32:01;6.03;;;3.30;;
71629;SDS011;59479;51.902;8.212;2022-08-24T18:34:26;7.75;;;4.15;;
71629;SDS011;59479;51.902;8.212;2022-08-24T18:36:54;7.55;;;3.55;;
71629;SDS011;59479;51.902;8.212;2022-08-24T18:39:19;10.30;;;3.70;;
71629;SDS011;59479;51.902;8.212;2022-08-24T18:41:46;6.60;;;3.20;;
71629;SDS011;59479;51.902;8.212;2022-08-24T18:44:12;8.02;;;4.05;;
71629;SDS011;59479;51.902;8.212;2022-08-24T18:46:44;7.75;;;3.63;;
71629;SDS011;59479;51.902;8.212;2022-08-24T18:49:10;6.77;;;4.30;;
71629;SDS011;59479;51.902;8.212;2022-08-24T18:51:35;6.87;;;3.33;;
71629;SDS011;59479;51.902;8.212;2022-08-24T18:54:23;5.80;;;3.40;;
71629;SDS011;59479;51.902;8.212;2022-08-24T18:56:49;5.97;;;3.10;;
71629;SDS011;59479;51.902;8.212;2022-08-24T18:59:15;9.02;;;3.42;;
71629;SDS011;59479;51.902;8.212;2022-08-24T19:01:42;6.20;;;3.38;;